TAX06MM LOWI-LSZS
Flight info
| Callsign | TAX06MM |
|---|---|
| Flight time | 0h 38m |
| Altitude | 30000 |
| Route | MOGTI P66 KPT L856 AKABI/N0462F290 L856 TRA N850 GERSA Z50 PELAD |
| Aircraft | B738/M-SDE2E3FGHIRWXY/LB1 |
Departure
| Time | 2026-04-21 22:53 |
|---|---|
| Airport | Innsbruck Airport (LOWI) |
Arrival
| Time | 2026-04-21 23:32 |
|---|---|
| Airport | Engadin Airport (LSZS) |
| Time | Latitude | Longitude | Altitude | Speed | Heading |
|---|---|---|---|---|---|
| 2026-04-21 22:26 | 47.25817 | 11.34989 | 1903 ft | 0 kts | 171° |
| 2026-04-21 22:45 | 47.25820 | 11.34988 | 1903 ft | 1 kts | 171° |
| 2026-04-21 22:45 | 47.25838 | 11.34984 | 1899 ft | 3 kts | 171° |
| 2026-04-21 22:45 | 47.25856 | 11.34981 | 1893 ft | 3 kts | 160° |
| 2026-04-21 22:45 | 47.25868 | 11.34969 | 1889 ft | 3 kts | 98° |
| 2026-04-21 22:46 | 47.25868 | 11.34951 | 1889 ft | 1 kts | 81° |
| 2026-04-21 22:46 | 47.25865 | 11.34927 | 1891 ft | 2 kts | 81° |
| 2026-04-21 22:46 | 47.25865 | 11.34921 | 1892 ft | 0 kts | 81° |
| 2026-04-21 22:49 | 47.25865 | 11.34922 | 1893 ft | 1 kts | 81° |
| 2026-04-21 22:49 | 47.25868 | 11.34948 | 1889 ft | 5 kts | 81° |
| 2026-04-21 22:49 | 47.25876 | 11.35028 | 1899 ft | 11 kts | 81° |
| 2026-04-21 22:49 | 47.25890 | 11.35157 | 1901 ft | 14 kts | 81° |
| 2026-04-21 22:50 | 47.25905 | 11.35269 | 1903 ft | 8 kts | 60° |
| 2026-04-21 22:50 | 47.25955 | 11.35282 | 1903 ft | 8 kts | 351° |
| 2026-04-21 22:50 | 47.26007 | 11.35271 | 1903 ft | 7 kts | 353° |
| 2026-04-21 22:50 | 47.26056 | 11.35261 | 1903 ft | 7 kts | 351° |
| 2026-04-21 22:51 | 47.26105 | 11.35275 | 1900 ft | 8 kts | 42° |
| 2026-04-21 22:51 | 47.26126 | 11.35377 | 1899 ft | 14 kts | 81° |
| 2026-04-21 22:51 | 47.26141 | 11.35540 | 1898 ft | 14 kts | 94° |
| 2026-04-21 22:51 | 47.26112 | 11.35654 | 1903 ft | 11 kts | 94° |
| 2026-04-21 22:52 | 47.26143 | 11.35724 | 1900 ft | 7 kts | 356° |
| 2026-04-21 22:52 | 47.26158 | 11.35681 | 1895 ft | 0 kts | 262° |
| 2026-04-21 22:52 | 47.26157 | 11.35669 | 1894 ft | 6 kts | 262° |
| 2026-04-21 22:53 | 47.26123 | 11.35337 | 1900 ft | 75 kts | 261° |
| 2026-04-21 22:53 | 47.25999 | 11.34181 | 1900 ft | 154 kts | 262° |
| 2026-04-21 22:53 | 47.25823 | 11.32428 | 2487 ft | 177 kts | 261° |
| 2026-04-21 22:53 | 47.25636 | 11.30655 | 3668 ft | 176 kts | 261° |
| 2026-04-21 22:54 | 47.25446 | 11.28865 | 4512 ft | 178 kts | 261° |
| 2026-04-21 22:54 | 47.25268 | 11.27034 | 5369 ft | 185 kts | 268° |
| 2026-04-21 22:54 | 47.25625 | 11.25116 | 5980 ft | 203 kts | 296° |
| 2026-04-21 22:54 | 47.26249 | 11.23154 | 6468 ft | 219 kts | 295° |
| 2026-04-21 22:55 | 47.26899 | 11.21062 | 7071 ft | 228 kts | 294° |
| 2026-04-21 22:55 | 47.27542 | 11.18928 | 7918 ft | 229 kts | 294° |
| 2026-04-21 22:55 | 47.28176 | 11.16785 | 8909 ft | 226 kts | 293° |
| 2026-04-21 22:55 | 47.28803 | 11.14651 | 9823 ft | 227 kts | 292° |
| 2026-04-21 22:56 | 47.29443 | 11.12464 | 10508 ft | 239 kts | 292° |
| 2026-04-21 22:56 | 47.30132 | 11.10101 | 10817 ft | 266 kts | 292° |
| 2026-04-21 22:56 | 47.30589 | 11.07339 | 11024 ft | 294 kts | 270° |
| 2026-04-21 22:56 | 47.30476 | 11.04189 | 11258 ft | 321 kts | 266° |
| 2026-04-21 22:57 | 47.30311 | 11.00774 | 11467 ft | 347 kts | 266° |
| 2026-04-21 22:57 | 47.30148 | 10.97115 | 11721 ft | 368 kts | 267° |
| 2026-04-21 22:57 | 47.29995 | 10.93295 | 12266 ft | 378 kts | 267° |
| 2026-04-21 22:57 | 47.29846 | 10.89391 | 13011 ft | 382 kts | 269° |
| 2026-04-21 22:58 | 47.30115 | 10.85497 | 13782 ft | 385 kts | 288° |
| 2026-04-21 22:58 | 47.31288 | 10.82015 | 14521 ft | 386 kts | 305° |
| 2026-04-21 22:58 | 47.33118 | 10.79137 | 15299 ft | 387 kts | 318° |
| 2026-04-21 22:58 | 47.35167 | 10.76534 | 15995 ft | 390 kts | 319° |
| 2026-04-21 22:59 | 47.37222 | 10.73896 | 16690 ft | 393 kts | 318° |
| 2026-04-21 22:59 | 47.39283 | 10.71227 | 17405 ft | 396 kts | 319° |
| 2026-04-21 22:59 | 47.41496 | 10.68775 | 18083 ft | 399 kts | 324° |
| 2026-04-21 22:59 | 47.43817 | 10.66487 | 18715 ft | 403 kts | 325° |
| 2026-04-21 23:00 | 47.46167 | 10.64210 | 19289 ft | 405 kts | 325° |
| 2026-04-21 23:00 | 47.48518 | 10.61894 | 19913 ft | 407 kts | 324° |
| 2026-04-21 23:00 | 47.50857 | 10.59539 | 20518 ft | 408 kts | 324° |
| 2026-04-21 23:00 | 47.53206 | 10.57143 | 21075 ft | 411 kts | 324° |
| 2026-04-21 23:01 | 47.55585 | 10.54703 | 21505 ft | 417 kts | 324° |
| 2026-04-21 23:01 | 47.57943 | 10.52271 | 22024 ft | 419 kts | 324° |
| 2026-04-21 23:01 | 47.60338 | 10.49794 | 22589 ft | 420 kts | 323° |
| 2026-04-21 23:01 | 47.62766 | 10.47279 | 23154 ft | 422 kts | 323° |
| 2026-04-21 23:02 | 47.65150 | 10.44810 | 23638 ft | 424 kts | 323° |
| 2026-04-21 23:02 | 47.67578 | 10.42295 | 24056 ft | 427 kts | 323° |
| 2026-04-21 23:02 | 47.70012 | 10.39763 | 24456 ft | 428 kts | 322° |
| 2026-04-21 23:02 | 47.72160 | 10.36714 | 24812 ft | 429 kts | 306° |
| 2026-04-21 23:03 | 47.73587 | 10.32830 | 25239 ft | 430 kts | 292° |
| 2026-04-21 23:03 | 47.74396 | 10.28549 | 25622 ft | 434 kts | 279° |
| 2026-04-21 23:03 | 47.74496 | 10.24052 | 25971 ft | 438 kts | 270° |
| 2026-04-21 23:03 | 47.74358 | 10.19501 | 26316 ft | 440 kts | 269° |
| 2026-04-21 23:04 | 47.74195 | 10.14961 | 26727 ft | 440 kts | 269° |
| 2026-04-21 23:04 | 47.74045 | 10.10426 | 27273 ft | 437 kts | 270° |
| 2026-04-21 23:04 | 47.73919 | 10.05930 | 27878 ft | 433 kts | 270° |
| 2026-04-21 23:04 | 47.73808 | 10.01476 | 28447 ft | 431 kts | 271° |
| 2026-04-21 23:05 | 47.73702 | 9.97091 | 28949 ft | 429 kts | 271° |
| 2026-04-21 23:05 | 47.73592 | 9.92670 | 29439 ft | 428 kts | 271° |
| 2026-04-21 23:05 | 47.73477 | 9.88260 | 30008 ft | 426 kts | 271° |
| 2026-04-21 23:05 | 47.73361 | 9.83852 | 30136 ft | 430 kts | 271° |
| 2026-04-21 23:06 | 47.73123 | 9.74975 | 30155 ft | 428 kts | 271° |
| 2026-04-21 23:06 | 47.72880 | 9.66204 | 30155 ft | 421 kts | 271° |
| 2026-04-21 23:07 | 47.72661 | 9.57560 | 30161 ft | 420 kts | 271° |
| 2026-04-21 23:07 | 47.72411 | 9.48885 | 30162 ft | 420 kts | 271° |
| 2026-04-21 23:08 | 47.72133 | 9.40470 | 30155 ft | 420 kts | 271° |
| 2026-04-21 23:08 | 47.71917 | 9.31777 | 30160 ft | 421 kts | 271° |
| 2026-04-21 23:09 | 47.71695 | 9.23084 | 30157 ft | 421 kts | 271° |
| 2026-04-21 23:09 | 47.71422 | 9.14387 | 30159 ft | 422 kts | 271° |
| 2026-04-21 23:10 | 47.71136 | 9.05697 | 30167 ft | 422 kts | 271° |
| 2026-04-21 23:10 | 47.70857 | 8.97030 | 30166 ft | 422 kts | 271° |
| 2026-04-21 23:11 | 47.70571 | 8.88313 | 30164 ft | 423 kts | 271° |
| 2026-04-21 23:11 | 47.70277 | 8.79597 | 30150 ft | 421 kts | 271° |
| 2026-04-21 23:12 | 47.69980 | 8.70932 | 30159 ft | 419 kts | 271° |
| 2026-04-21 23:12 | 47.69677 | 8.62311 | 30161 ft | 417 kts | 271° |
| 2026-04-21 23:13 | 47.69333 | 8.58027 | 30148 ft | 424 kts | 260° |
| 2026-04-21 23:13 | 47.68149 | 8.53954 | 30175 ft | 435 kts | 246° |
| 2026-04-21 23:13 | 47.66257 | 8.50363 | 30156 ft | 450 kts | 232° |
| 2026-04-21 23:13 | 47.63778 | 8.47543 | 30114 ft | 463 kts | 217° |
| 2026-04-21 23:14 | 47.60751 | 8.45724 | 29958 ft | 477 kts | 201° |
| 2026-04-21 23:14 | 47.57384 | 8.45199 | 29816 ft | 495 kts | 185° |
| 2026-04-21 23:14 | 47.53913 | 8.45682 | 29710 ft | 504 kts | 178° |
| 2026-04-21 23:14 | 47.50429 | 8.46352 | 29565 ft | 504 kts | 179° |
| 2026-04-21 23:15 | 47.46946 | 8.46958 | 29369 ft | 505 kts | 181° |
| 2026-04-21 23:15 | 47.43429 | 8.47508 | 29234 ft | 508 kts | 181° |
| 2026-04-21 23:15 | 47.37582 | 8.48350 | 29158 ft | 507 kts | 182° |
| 2026-04-21 23:16 | 47.30560 | 8.49343 | 29164 ft | 507 kts | 182° |
| 2026-04-21 23:16 | 47.22375 | 8.50522 | 29146 ft | 507 kts | 182° |
| 2026-04-21 23:17 | 47.16528 | 8.51373 | 29140 ft | 508 kts | 182° |
| 2026-04-21 23:17 | 47.09463 | 8.52486 | 29107 ft | 517 kts | 176° |
| 2026-04-21 23:18 | 47.06032 | 8.54287 | 29067 ft | 536 kts | 155° |
| 2026-04-21 23:18 | 47.02989 | 8.57500 | 29117 ft | 542 kts | 139° |
| 2026-04-21 23:18 | 47.00509 | 8.61604 | 28666 ft | 539 kts | 130° |
| 2026-04-21 23:18 | 46.97946 | 8.65664 | 27556 ft | 544 kts | 137° |
| 2026-04-21 23:19 | 46.95219 | 8.69490 | 26518 ft | 544 kts | 139° |
| 2026-04-21 23:19 | 46.92475 | 8.73205 | 25540 ft | 530 kts | 140° |
| 2026-04-21 23:19 | 46.89792 | 8.76849 | 24547 ft | 525 kts | 139° |
| 2026-04-21 23:19 | 46.87147 | 8.80502 | 23647 ft | 515 kts | 138° |
| 2026-04-21 23:20 | 46.84621 | 8.84057 | 22792 ft | 496 kts | 137° |
| 2026-04-21 23:20 | 46.82187 | 8.87527 | 22004 ft | 485 kts | 137° |
| 2026-04-21 23:20 | 46.79826 | 8.90911 | 21314 ft | 479 kts | 137° |
| 2026-04-21 23:20 | 46.77460 | 8.94305 | 20550 ft | 475 kts | 137° |
| 2026-04-21 23:21 | 46.75114 | 8.97667 | 19832 ft | 469 kts | 136° |
| 2026-04-21 23:21 | 46.72804 | 9.00968 | 19269 ft | 459 kts | 136° |
| 2026-04-21 23:21 | 46.70533 | 9.04208 | 18573 ft | 448 kts | 136° |
| 2026-04-21 23:21 | 46.68326 | 9.07348 | 17745 ft | 442 kts | 136° |
| 2026-04-21 23:22 | 46.66148 | 9.10444 | 17053 ft | 430 kts | 136° |
| 2026-04-21 23:22 | 46.64046 | 9.13428 | 16410 ft | 414 kts | 136° |
| 2026-04-21 23:22 | 46.62018 | 9.16304 | 15777 ft | 401 kts | 136° |
| 2026-04-21 23:22 | 46.60066 | 9.19069 | 15652 ft | 386 kts | 137° |
| 2026-04-21 23:23 | 46.58123 | 9.21816 | 15475 ft | 391 kts | 137° |
| 2026-04-21 23:23 | 46.56171 | 9.24572 | 15282 ft | 389 kts | 137° |
| 2026-04-21 23:23 | 46.54241 | 9.27297 | 15135 ft | 385 kts | 137° |
| 2026-04-21 23:23 | 46.52324 | 9.30002 | 14973 ft | 383 kts | 137° |
| 2026-04-21 23:24 | 46.50436 | 9.32663 | 14819 ft | 382 kts | 137° |
| 2026-04-21 23:24 | 46.48526 | 9.35352 | 14672 ft | 382 kts | 137° |
| 2026-04-21 23:24 | 46.46609 | 9.38044 | 14498 ft | 384 kts | 137° |
| 2026-04-21 23:24 | 46.44689 | 9.40738 | 14317 ft | 385 kts | 138° |
| 2026-04-21 23:25 | 46.42764 | 9.43432 | 14136 ft | 383 kts | 137° |
| 2026-04-21 23:25 | 46.40870 | 9.46102 | 13996 ft | 373 kts | 137° |
| 2026-04-21 23:25 | 46.39055 | 9.48650 | 13776 ft | 354 kts | 138° |
| 2026-04-21 23:25 | 46.37314 | 9.51086 | 13658 ft | 343 kts | 138° |
| 2026-04-21 23:26 | 46.35616 | 9.53458 | 13303 ft | 333 kts | 137° |
| 2026-04-21 23:26 | 46.34240 | 9.56061 | 13008 ft | 322 kts | 114° |
| 2026-04-21 23:26 | 46.33735 | 9.59134 | 12749 ft | 310 kts | 92° |
| 2026-04-21 23:26 | 46.33923 | 9.62152 | 12492 ft | 293 kts | 73° |
| 2026-04-21 23:27 | 46.34589 | 9.64854 | 12207 ft | 277 kts | 66° |
| 2026-04-21 23:27 | 46.35297 | 9.67357 | 11967 ft | 260 kts | 64° |
| 2026-04-21 23:27 | 46.36291 | 9.69443 | 11543 ft | 249 kts | 39° |
| 2026-04-21 23:27 | 46.37580 | 9.70931 | 11436 ft | 224 kts | 34° |
| 2026-04-21 23:28 | 46.38806 | 9.72302 | 10893 ft | 229 kts | 36° |
| 2026-04-21 23:28 | 46.40052 | 9.73703 | 10327 ft | 223 kts | 36° |
| 2026-04-21 23:28 | 46.41248 | 9.75057 | 9788 ft | 213 kts | 38° |
| 2026-04-21 23:28 | 46.42380 | 9.76347 | 9330 ft | 202 kts | 38° |
| 2026-04-21 23:29 | 46.43441 | 9.77557 | 8973 ft | 185 kts | 37° |
| 2026-04-21 23:29 | 46.44407 | 9.78660 | 8617 ft | 166 kts | 37° |
| 2026-04-21 23:29 | 46.45289 | 9.79668 | 8245 ft | 157 kts | 38° |
| 2026-04-21 23:29 | 46.46130 | 9.80639 | 7938 ft | 153 kts | 39° |
| 2026-04-21 23:30 | 46.46915 | 9.81654 | 7701 ft | 150 kts | 41° |
| 2026-04-21 23:30 | 46.47684 | 9.82682 | 7558 ft | 152 kts | 41° |
| 2026-04-21 23:30 | 46.48482 | 9.83706 | 7290 ft | 155 kts | 40° |
| 2026-04-21 23:30 | 46.49295 | 9.84707 | 6999 ft | 155 kts | 39° |
| 2026-04-21 23:31 | 46.50144 | 9.85672 | 6660 ft | 155 kts | 34° |
| 2026-04-21 23:31 | 46.51063 | 9.86488 | 6243 ft | 155 kts | 29° |
| 2026-04-21 23:31 | 46.51991 | 9.87228 | 5903 ft | 150 kts | 28° |
| 2026-04-21 23:31 | 46.52887 | 9.87950 | 5616 ft | 143 kts | 30° |
| 2026-04-21 23:32 | 46.53582 | 9.88523 | 5608 ft | 68 kts | 29° |
| 2026-04-21 23:32 | 46.53868 | 9.88755 | 5606 ft | 37 kts | 29° |
| 2026-04-21 23:32 | 46.54027 | 9.88884 | 5611 ft | 14 kts | 29° |
| 2026-04-21 23:32 | 46.54096 | 9.88940 | 5608 ft | 11 kts | 29° |
| 2026-04-21 23:33 | 46.54118 | 9.89031 | 5612 ft | 11 kts | 116° |
| 2026-04-21 23:33 | 46.54053 | 9.89046 | 5605 ft | 11 kts | 205° |
| 2026-04-21 23:33 | 46.53989 | 9.88995 | 5607 ft | 10 kts | 209° |
| 2026-04-21 23:33 | 46.53927 | 9.88945 | 5610 ft | 10 kts | 209° |
| 2026-04-21 23:34 | 46.53867 | 9.88896 | 5611 ft | 10 kts | 209° |
| 2026-04-21 23:34 | 46.53808 | 9.88848 | 5606 ft | 10 kts | 209° |
| 2026-04-21 23:34 | 46.53751 | 9.88802 | 5606 ft | 9 kts | 209° |
| 2026-04-21 23:34 | 46.53695 | 9.88756 | 5607 ft | 9 kts | 209° |
| 2026-04-21 23:35 | 46.53640 | 9.88711 | 5602 ft | 10 kts | 209° |
| 2026-04-21 23:35 | 46.53582 | 9.88664 | 5607 ft | 10 kts | 209° |
| 2026-04-21 23:35 | 46.53523 | 9.88615 | 5607 ft | 10 kts | 209° |
| 2026-04-21 23:35 | 46.53466 | 9.88570 | 5607 ft | 8 kts | 209° |
| 2026-04-21 23:36 | 46.53424 | 9.88535 | 5605 ft | 0 kts | 209° |
| 2026-04-21 23:36 | 46.53422 | 9.88533 | 5605 ft | 2 kts | 209° |
| 2026-04-21 23:36 | 46.53375 | 9.88496 | 5606 ft | 13 kts | 209° |
| 2026-04-21 23:37 | 46.53292 | 9.88428 | 5607 ft | 14 kts | 209° |
| 2026-04-21 23:37 | 46.53211 | 9.88362 | 5607 ft | 13 kts | 209° |
| 2026-04-21 23:37 | 46.53132 | 9.88299 | 5608 ft | 13 kts | 209° |
| 2026-04-21 23:37 | 46.53062 | 9.88242 | 5607 ft | 12 kts | 209° |
| 2026-04-21 23:38 | 46.52988 | 9.88181 | 5604 ft | 12 kts | 210° |
| 2026-04-21 23:38 | 46.52941 | 9.88134 | 5608 ft | 5 kts | 242° |
| 2026-04-21 23:38 | 46.52951 | 9.88081 | 5604 ft | 7 kts | 293° |
| 2026-04-21 23:38 | 46.52975 | 9.88015 | 5606 ft | 7 kts | 299° |
| 2026-04-21 23:39 | 46.53000 | 9.87952 | 5606 ft | 7 kts | 300° |
| 2026-04-21 23:39 | 46.53043 | 9.87938 | 5607 ft | 7 kts | 24° |
| 2026-04-21 23:39 | 46.53047 | 9.87941 | 5605 ft | 0 kts | 26° |
| 2026-04-21 23:40 | 46.53069 | 9.87956 | 5607 ft | 7 kts | 13° |
| 2026-04-21 23:40 | 46.53115 | 9.87965 | 5608 ft | 5 kts | 50° |
| 2026-04-21 23:40 | 46.53096 | 9.87989 | 5607 ft | 5 kts | 197° |
| 2026-04-21 23:40 | 46.53093 | 9.87986 | 5607 ft | 0 kts | 208° |